createdAt,value
2019-01-15T00:00:12.748Z,96762.53
2019-01-15T00:05:18.562Z,96801.13
2019-01-15T00:10:22.725Z,96787.04
2019-01-15T00:15:27.150Z,96820.28
2019-01-15T00:20:31.271Z,96820.19
2019-01-15T00:25:36.272Z,96781.14
2019-01-15T00:30:40.738Z,96824.14
2019-01-15T00:35:44.866Z,96824.35
2019-01-15T00:40:50.023Z,96810.03
2019-01-15T00:45:54.204Z,96828.57
2019-01-15T00:50:58.483Z,96840.93
2019-01-15T00:56:02.581Z,96837.95
2019-01-15T01:01:07.248Z,96799.86
2019-01-15T01:06:12.963Z,96787.50
2019-01-15T01:11:16.985Z,96803.11
2019-01-15T01:16:21.096Z,96768.63
2019-01-15T01:21:24.980Z,96815.66
2019-01-15T01:26:29.326Z,96793.77
2019-01-15T01:31:33.331Z,96808.75
2019-01-15T01:36:37.471Z,96792.20
2019-01-15T01:41:41.448Z,96832.55
2019-01-15T01:46:47.188Z,96801.88
2019-01-15T01:51:51.520Z,96787.97
2019-01-15T01:56:55.607Z,96809.66
2019-01-15T02:02:00.189Z,96800.02
2019-01-15T02:07:04.704Z,96795.20
2019-01-15T02:12:08.630Z,96787.07
2019-01-15T02:17:12.799Z,96787.70
2019-01-15T02:22:18.844Z,96818.14
2019-01-15T02:27:23.813Z,96760.70
2019-01-15T02:32:27.962Z,96769.53
2019-01-15T02:37:31.944Z,96778.73
2019-01-15T02:42:36.101Z,96780.75
2019-01-15T02:47:40.286Z,96787.14
2019-01-15T02:52:44.611Z,96822.16
2019-01-15T02:57:49.306Z,96845.45
2019-01-15T03:02:53.713Z,96796.02
2019-01-15T03:07:57.771Z,96846.59
2019-01-15T03:13:01.732Z,96815.73
2019-01-15T03:18:05.905Z,96817.89
2019-01-15T03:23:09.826Z,96823.31
2019-01-15T03:28:13.909Z,96875.98
2019-01-15T03:33:17.949Z,96836.23
2019-01-15T03:38:21.842Z,96839.83
2019-01-15T03:43:25.826Z,96836.13
2019-01-15T03:48:29.907Z,96877.00
2019-01-15T03:53:33.811Z,96891.81
2019-01-15T03:58:38.951Z,96913.08
2019-01-15T04:03:43.610Z,96852.07
2019-01-15T04:08:47.778Z,96919.48
2019-01-15T04:13:51.739Z,96895.41
2019-01-15T04:18:56.047Z,96879.95
2019-01-15T04:24:00.676Z,96922.03
2019-01-15T04:29:04.915Z,96908.12
2019-01-15T04:34:09.105Z,96946.10
2019-01-15T04:39:13.037Z,96892.97
2019-01-15T04:44:16.995Z,96911.17
2019-01-15T04:49:21.049Z,96927.56
2019-01-15T04:54:24.945Z,96904.23
2019-01-15T04:59:30.053Z,96960.40
2019-01-15T05:04:35.406Z,96938.27
2019-01-15T05:09:39.508Z,96908.88
2019-01-15T05:14:43.572Z,96968.05
2019-01-15T05:19:47.907Z,96900.66
2019-01-15T05:24:51.751Z,96917.97
2019-01-15T05:29:55.899Z,96940.95
2019-01-15T05:34:59.862Z,96910.28
2019-01-15T05:40:04.846Z,96909.03
2019-01-15T05:45:12.654Z,96920.82
2019-01-15T05:50:20.497Z,96893.16
2019-01-15T05:55:24.405Z,96889.95
2019-01-15T06:00:28.365Z,96876.05
2019-01-15T06:05:33.452Z,96918.50
2019-01-15T06:10:37.357Z,96900.65
2019-01-15T06:15:41.443Z,96923.11
2019-01-15T06:20:45.361Z,96890.69
2019-01-15T06:25:49.512Z,96969.47
2019-01-15T06:30:53.667Z,96909.56
2019-01-15T06:35:57.826Z,96924.54
2019-01-15T06:41:01.794Z,96897.98
2019-01-15T06:46:06.402Z,96926.52
2019-01-15T06:51:10.404Z,96971.97
2019-01-15T06:56:14.667Z,96998.16
2019-01-15T07:01:18.862Z,96913.33
2019-01-15T07:06:23.090Z,96984.24
2019-01-15T07:11:27.018Z,96941.13
2019-01-15T07:16:31.524Z,96953.05
2019-01-15T07:21:35.797Z,97016.16
2019-01-15T07:26:39.838Z,97012.05
2019-01-15T07:31:43.846Z,97057.33
2019-01-15T07:36:47.742Z,97014.19
2019-01-15T07:41:52.368Z,97122.87
2019-01-15T07:46:56.466Z,97054.98
2019-01-15T07:52:00.447Z,96951.08
2019-01-15T07:57:04.460Z,97170.65
2019-01-15T08:02:09.377Z,97033.42
2019-01-15T08:07:13.733Z,97170.84
2019-01-15T08:12:17.734Z,97059.46
2019-01-15T08:17:21.674Z,97028.80
2019-01-15T08:22:25.690Z,97065.70
2019-01-15T08:27:29.825Z,97013.30
2019-01-15T08:32:34.560Z,97067.16
2019-01-15T08:37:38.733Z,97022.59
2019-01-15T08:42:42.810Z,97032.73
2019-01-15T08:47:51.758Z,97026.65
2019-01-15T08:52:55.927Z,97029.15
2019-01-15T08:58:00.083Z,97056.24
2019-01-15T09:03:04.607Z,97017.41
2019-01-15T09:08:09.427Z,97015.63
2019-01-15T09:13:13.465Z,96927.20
2019-01-15T09:18:17.466Z,97057.89
2019-01-15T09:23:21.675Z,97056.28
2019-01-15T09:28:25.745Z,97072.67
2019-01-15T09:33:29.960Z,97082.13
2019-01-15T09:38:34.053Z,97044.69
2019-01-15T09:43:38.109Z,97046.83
2019-01-15T09:48:42.149Z,97061.80
2019-01-15T09:53:46.086Z,97056.44
2019-01-15T09:58:50.080Z,97040.06
2019-01-15T10:03:54.682Z,97102.77
2019-01-15T10:08:59.159Z,97008.30
2019-01-15T10:14:03.867Z,97076.55
2019-01-15T10:19:08.123Z,97069.38
2019-01-15T10:24:12.424Z,97063.11
2019-01-15T10:29:17.714Z,97036.86
2019-01-15T10:34:26.141Z,97070.17
2019-01-15T10:39:30.921Z,97084.89
2019-01-15T10:44:35.051Z,97083.98
2019-01-15T10:49:39.146Z,97113.68
2019-01-15T10:54:43.175Z,97145.05
2019-01-15T10:59:47.313Z,97179.32
2019-01-15T11:04:51.350Z,97121.98
2019-01-15T11:09:55.851Z,97097.37
2019-01-15T11:14:59.974Z,97123.73
2019-01-15T11:20:06.092Z,97154.38
2019-01-15T11:25:11.352Z,97143.52
2019-01-15T11:30:15.719Z,97133.70
2019-01-15T11:35:19.883Z,97187.36
2019-01-15T11:40:23.927Z,97205.69
2019-01-15T11:45:28.194Z,97206.25
2019-01-15T11:50:32.337Z,97279.13
2019-01-15T11:55:39.540Z,97175.69
2019-01-15T12:01:03.079Z,97201.13
2019-01-15T12:06:27.657Z,97165.11
2019-01-15T12:11:50.007Z,97209.94
2019-01-15T12:17:16.287Z,97198.68
2019-01-15T12:22:49.220Z,97219.58
2019-01-15T12:28:11.426Z,97299.36
2019-01-15T12:33:50.188Z,97233.39
2019-01-15T12:39:12.476Z,97260.00
2019-01-15T12:44:35.050Z,97238.05
2019-01-15T12:49:57.093Z,97348.03
2019-01-15T12:55:19.262Z,97259.77
2019-01-15T13:00:46.190Z,97293.06
2019-01-15T13:06:08.672Z,97255.00
2019-01-15T13:11:33.295Z,97298.37
2019-01-15T13:16:45.249Z,97288.13
2019-01-15T13:22:06.648Z,97290.80
2019-01-15T13:27:45.279Z,97300.25
2019-01-15T13:33:08.880Z,97279.98
2019-01-15T13:38:41.853Z,97438.09
2019-01-15T13:43:55.546Z,97264.04
2019-01-15T13:49:27.857Z,97300.22
2019-01-15T13:55:06.508Z,97333.25
2019-01-15T14:00:31.007Z,97355.63
2019-01-15T14:05:53.708Z,97326.48
2019-01-15T14:11:26.678Z,97359.28
2019-01-15T14:16:55.917Z,97389.15
2019-01-15T14:22:18.399Z,97423.55
2019-01-15T14:27:41.215Z,97372.53
2019-01-15T14:33:02.696Z,97399.15
2019-01-15T14:38:25.044Z,97399.35
2019-01-15T14:43:47.248Z,97419.98
2019-01-15T14:49:16.875Z,97415.52
2019-01-15T14:54:43.398Z,97501.47
2019-01-15T15:00:15.527Z,97416.87
2019-01-15T15:05:27.285Z,97427.06
2019-01-15T15:10:47.261Z,97435.50
2019-01-15T15:16:20.192Z,97436.03
2019-01-15T15:21:52.336Z,97433.51
2019-01-15T15:27:16.538Z,97427.42
2019-01-15T15:32:38.949Z,97496.50
2019-01-15T15:38:01.210Z,97434.20
2019-01-15T15:43:40.157Z,97415.98
2019-01-15T15:49:06.361Z,97430.75
2019-01-15T15:54:21.792Z,97435.81
2019-01-15T15:59:43.452Z,97438.08
2019-01-15T16:05:05.247Z,97492.05
2019-01-15T16:10:29.428Z,97468.39
2019-01-15T16:15:58.383Z,97417.91
2019-01-15T16:21:30.935Z,97397.41
2019-01-15T16:26:54.272Z,97445.45
2019-01-15T16:32:18.341Z,97466.03
2019-01-15T16:37:41.914Z,97476.56
2019-01-15T16:42:55.832Z,97515.14
2019-01-15T16:48:17.733Z,97454.56
2019-01-15T16:53:40.481Z,97529.66
2019-01-15T16:59:07.266Z,97542.53
2019-01-15T17:04:34.807Z,97543.07
2019-01-15T17:10:07.362Z,97502.72
2019-01-15T17:15:29.509Z,97529.14
2019-01-15T17:20:53.003Z,97511.88
2019-01-15T17:26:25.638Z,97582.48
2019-01-15T17:32:00.189Z,97561.63
2019-01-15T17:37:22.644Z,97615.12
2019-01-15T17:42:44.700Z,97516.22
2019-01-15T17:48:14.483Z,97572.54
2019-01-15T17:53:40.876Z,97570.63
2019-01-15T17:59:03.542Z,97528.77
2019-01-15T18:04:27.137Z,97621.88
2019-01-15T18:09:57.640Z,97700.83
2019-01-15T18:15:30.460Z,97531.52
2019-01-15T18:21:02.054Z,97544.01
2019-01-15T18:26:41.383Z,97604.85
2019-01-15T18:32:13.440Z,97521.56
2019-01-15T18:37:27.056Z,97545.45
2019-01-15T18:43:09.295Z,97623.34
2019-01-15T18:48:30.224Z,97563.81
2019-01-15T18:53:59.957Z,97646.23
2019-01-15T18:59:22.252Z,97622.13
2019-01-15T19:04:46.161Z,97603.16
2019-01-15T19:10:09.263Z,97668.28
2019-01-15T19:15:44.886Z,97710.53
2019-01-15T19:21:23.682Z,97694.42
2019-01-15T19:26:46.132Z,97676.37
2019-01-15T19:32:08.560Z,97777.94
2019-01-15T19:37:35.128Z,97767.13
2019-01-15T19:42:47.871Z,97720.54
2019-01-15T19:48:17.251Z,97749.14
2019-01-15T19:53:44.592Z,97773.31
2019-01-15T19:59:08.198Z,97746.66
2019-01-15T20:04:30.470Z,97784.52
2019-01-15T20:10:09.038Z,97788.57
2019-01-15T20:15:32.927Z,97787.70
2019-01-15T20:20:54.944Z,97884.86
2019-01-15T20:26:21.862Z,97819.64
2019-01-15T20:31:45.578Z,97817.62
2019-01-15T20:37:08.043Z,97859.30
2019-01-15T20:42:40.506Z,97844.17
2019-01-15T20:48:13.410Z,97853.91
2019-01-15T20:53:35.952Z,97873.23
2019-01-15T20:59:08.319Z,97869.52
2019-01-15T21:04:49.999Z,97913.41
2019-01-15T21:10:13.682Z,97872.00
2019-01-15T21:15:47.875Z,97918.28
2019-01-15T21:21:29.677Z,97910.16
2019-01-15T21:26:53.326Z,97914.91
2019-01-15T21:32:15.499Z,97903.50
2019-01-15T21:37:45.522Z,97903.06
2019-01-15T21:43:17.971Z,97928.67
2019-01-15T21:48:40.185Z,97924.06
2019-01-15T21:54:06.694Z,97926.64
2019-01-15T21:59:29.121Z,97938.41
2019-01-15T22:05:01.617Z,97933.44
2019-01-15T22:10:24.283Z,97939.85
2019-01-15T22:15:46.727Z,97932.64
2019-01-15T22:21:10.339Z,97940.09
2019-01-15T22:26:53.353Z,97956.88
2019-01-15T22:32:15.858Z,97972.81
2019-01-15T22:37:55.018Z,97965.95
2019-01-15T22:43:40.826Z,97970.46
2019-01-15T22:49:04.900Z,97972.25
2019-01-15T22:54:27.297Z,97978.02
2019-01-15T23:00:02.821Z,97975.39
2019-01-15T23:05:21.961Z,97975.98
2019-01-15T23:10:45.655Z,97974.50
2019-01-15T23:16:09.077Z,97977.09
2019-01-15T23:21:30.329Z,97979.91
2019-01-15T23:26:54.000Z,97991.05
2019-01-15T23:32:23.493Z,97982.80
2019-01-15T23:37:39.729Z,97972.77
2019-01-15T23:43:09.249Z,97974.11
2019-01-15T23:48:36.189Z,97987.12
2019-01-15T23:54:18.527Z,97983.40
2019-01-15T23:59:41.039Z,97976.74
